logo
App data

Aces of the Luftwaffe

YOU have to show what you’re made of as the war over Europe is in full swing. Fight waves of Axis planes and panzers until you hit the boss enemies – the ACES OF THE LUFTWAFFE.
Store | Hub | SteamDB | Site
Developer: HandyGames Publisher: HandyGames
Genre: Action
Languages: English, French, Italian, German, Spanish - Spain, Dutch, Japanese, Korean, Portuguese, Portuguese - Brazil, Simplified Chinese, Swedish, Traditional Chinese, Turkish
Tags: Action (24), Shoot 'Em Up (11), Bullet Hell (8), World War II (6)
Category: Single-player, Steam Achievements, Full controller support, Steam Cloud
Release date: May 6, 2015
Price: $4.99
Old userscore: 65% Owners: 20,000 .. 50,000
Followers: 347
Peak concurrent players yesterday: 1

Steam Spy is still in beta, so expect major bugs.

Owners data:

Access restricted.

This feature is only available to users with special access rights. Sorry.

If you want to proceed, you need to register or log in first and then back Steam Spy on Patreon. Look for Indie or Pro pledge.

Don't forget to use the same email as on Steam Spy!

Audience in 2 weeks:

Access restricted.

This feature is only available to users with special access rights. Sorry.

If you want to proceed, you need to register or log in first and then back Steam Spy on Patreon. Look for Indie or Pro pledge.

Don't forget to use the same email as on Steam Spy!

Peak daily concurrent players:

CCU data courtesy of SteamDB. Used with permission.

Hourly concurrent players:

Daily Twitch stats:

Hourly Twitch stats:

Followers over time

Access restricted.

This feature is only available to users with special access rights. Sorry.

If you want to proceed, you need to register or log in first and then back Steam Spy on Patreon. Look for Indie or Pro pledge.

Don't forget to use the same email as on Steam Spy!

Views for top 50 videos on YouTube for this game:

Games similar to this one:

# Game Release date
Price
Score rank
(Userscore / Metascore)
Owners
Players
Playtime (Median)
1 Mysterium: A Psychic Clue Game Jan 12, 2017 $6.99N/A (N/A)50,000 .. 100,0000%00:00 (00:00)
2 Leap Up no jutsu Dec 30, 2016 $0.99N/A (N/A)50,000 .. 100,0000%00:00 (00:00)
3 RYAN BLACK Jan 14, 2017 $2.99N/A (N/A)0 .. 20,0000%00:00 (00:00)
4 Die for the Empire Oct 7, 2016 $0.99N/A (N/A)20,000 .. 50,0000%00:00 (00:00)
5 DEFCON VR Feb 15, 2017 FreeN/A (N/A/84%)0 .. 20,0000%00:00 (00:00)
6 Disney Infinity 3.0: Gold Edition Dec 9, 2016 $29.99N/A (N/A)20,000 .. 50,0000%00:00 (00:00)
7 Cavern Escape Extremely Hard game!!! Feb 20, 2017 $3.99N/A (N/A)50,000 .. 100,0000%00:00 (00:00)
8 NightZ Feb 14, 2017 $0.99N/A (N/A)20,000 .. 50,0000%00:00 (00:00)
9 Leviathan Starblade Nov 1, 2016 $2.99N/A (N/A)0 .. 20,0000%00:00 (00:00)
10 ARK BOX Unlimited Nov 29, 2016 $4.99N/A (N/A)0 .. 20,0000%00:00 (00:00)
11 Lost Sea Jul 5, 2016 $14.99N/A (N/A)0 .. 20,0000%00:00 (00:00)
12 Daedalus - No Escape Oct 28, 2014 $1.99N/A (N/A)20,000 .. 50,0000%00:00 (00:00)
13 Seven Kingdoms 2 HD Feb 4, 2015 $9.99N/A (N/A)50,000 .. 100,0000%00:00 (00:00)
14 Disney Alice in Wonderland Mar 2, 2010 $19.99N/A (N/A/63%)0 .. 20,0000%00:00 (00:00)
15 Garden Rescue Feb 2, 2015 $3.99N/A (N/A)100,000 .. 200,0000%00:00 (00:00)
16 Wave of Darkness Nov 5, 2015 $29.99N/A (N/A)0 .. 20,0000%00:00 (00:00)
17 #KILLALLZOMBIES Aug 10, 2016 $4.99N/A (N/A)0 .. 20,0000%00:00 (00:00)
18 Cubesis Aug 22, 2014 $4.99N/A (N/A)0 .. 20,0000%00:00 (00:00)
19 Toxic Bunny HD Jul 18, 2014 $5.99N/A (N/A)0 .. 20,0000%00:00 (00:00)
20 SunAge: Battle for Elysium Dec 15, 2014 $14.99N/A (N/A)20,000 .. 50,0000%00:00 (00:00)
21 World War 2: Time of Wrath Jun 15, 2009 $4.99N/A (N/A)20,000 .. 50,0000%00:00 (00:00)
22 Run or Die Dec 11, 2014 $4.99N/A (N/A)20,000 .. 50,0000%00:00 (00:00)
23 Frontline : Road to Moscow Aug 8, 2014 $9.99N/A (N/A)0 .. 20,0000%00:00 (00:00)
24 Viking Squad Oct 4, 2016 $14.99N/A (N/A)0 .. 20,0000%00:00 (00:00)
25 Gold Rush! Classic Dec 23, 1988 $2.99N/A (N/A)200,000 .. 500,0000%00:00 (00:00)
26 Mystik Belle May 15, 2015 $14.99N/A (N/A)0 .. 20,0000%00:00 (00:00)
27 The Sun at Night Aug 1, 2014 $4.99N/A (N/A/59%)0 .. 20,0000%00:00 (00:00)
28 Paganitzu Oct 1, 1991 $4.99N/A (N/A)50,000 .. 100,0000%00:00 (00:00)
29 Disposable Heroes Oct 1, 2015 $1.99N/A (N/A)20,000 .. 50,0000%00:00 (00:00)
30 Monuments of Mars Jan 1, 1990 N/AN/A (N/A)0 .. 20,0000%00:00 (00:00)
31 SHOCK TROOPERS May 18, 2016 $7.99N/A (N/A)20,000 .. 50,0000%00:00 (00:00)
32 Xenophage: Alien Bloodsport Dec 29, 1995 N/AN/A (N/A)0 .. 20,0000%00:00 (00:00)
33 UFHO2 Apr 1, 2014 FreeN/A (N/A)20,000 .. 50,0000%00:00 (00:00)
34 Skyhook May 17, 2016 $4.99N/A (N/A)0 .. 20,0000%00:00 (00:00)
35 Fair Strike Feb 5, 2004 $3.99N/A (N/A/56%)0 .. 20,0000%00:00 (00:00)
36 NOBUNAGA’S AMBITION: Kakushin with Power Up Kit / 信長の野望・革新 with パワーアップキット Jun 25, 2015 $54.99N/A (N/A)20,000 .. 50,0000%00:00 (00:00)
37 Spirit of War Mar 12, 2015 $9.99N/A (N/A)20,000 .. 50,0000%00:00 (00:00)
38 NOBUNAGA'S AMBITION: Tendou with Power Up Kit / 信長の野望・天道 with パワーアップキット Jun 25, 2015 $54.99N/A (N/A)20,000 .. 50,0000%00:00 (00:00)
39 Desert Law Apr 29, 2005 $0.59N/A (N/A)20,000 .. 50,0000%00:00 (00:00)
40 AirMech Command Mar 8, 2017 $14.99N/A (N/A)0 .. 20,00050%00:27 (00:13)
41 Cuban Missile Crisis: Ice Crusade Jul 29, 2005 $0.74N/A (N/A)20,000 .. 50,0000%00:00 (00:00)
42 Curse of the Crescent Isle DX Aug 21, 2015 $0.99N/A (N/A)0 .. 20,0000%00:00 (00:00)
43 Bio Menace Aug 3, 1993 N/AN/A (N/A)0 .. 20,0000%00:00 (00:00)
44 TASTEE: Lethal Tactics May 10, 2016 $14.99N/A (N/A)20,000 .. 50,0000%00:00 (00:00)
45 Wuppo: Definitive Edition Sep 29, 2016 $14.99N/A (N/A/78%)50,000 .. 100,0000%00:00 (00:00)
46 Bezier Mar 3, 2016 $9.99N/A (N/A)20,000 .. 50,0000%00:00 (00:00)
47 Age of Barbarian Extended Cut May 20, 2016 $12.99N/A (N/A)20,000 .. 50,0000%00:00 (00:00)
48 Princess Kaguya: Legend of the Moon Warrior Aug 4, 2015 $10.99N/A (N/A)0 .. 20,0000%00:00 (00:00)
49 Gnomes Vs. Fairies: Greckel's Quest Jul 1, 2016 $2.99N/A (N/A)0 .. 20,0000%00:00 (00:00)
50 Magical Brickout Oct 17, 2016 $7.99N/A (N/A)0 .. 20,0000%00:00 (00:00)
51 Apocalypse: Party's Over May 30, 2016 N/AN/A (N/A)0 .. 20,0000%00:00 (00:00)
52 Russian Front Jul 23, 2015 $14.99N/A (N/A)0 .. 20,0000%00:00 (00:00)
53 World War II GI Mar 15, 1999 $6.99N/A (N/A)0 .. 20,0000%00:00 (00:00)
54 Azure Striker Gunvolt Aug 28, 2015 $14.99N/A (N/A)50,000 .. 100,0000%00:00 (00:00)
55 Fortify Apr 8, 2016 $4.99N/A (N/A)0 .. 20,0000%00:00 (00:00)
56 Tank Battle: 1944 Mar 1, 2016 $9.99N/A (N/A)20,000 .. 50,0000%00:00 (00:00)
57 ESCHATOS Sep 18, 2015 $14.99N/A (N/A)0 .. 20,0000%00:00 (00:00)
58 Porradaria Upgrade Oct 2, 2013 N/AN/A (N/A)20,000 .. 50,0000%00:00 (00:00)
59 Police Tactics: Imperio Sep 7, 2016 $24.99N/A (N/A)0 .. 20,0000%00:00 (00:00)
60 Normality Jun 30, 1996 $2.99N/A (N/A)200,000 .. 500,0000%00:00 (00:00)
61 DELTAZEAL Oct 16, 2015 $11.99N/A (N/A)0 .. 20,0000%00:00 (00:00)
62 Onechanbara Z2: Chaos Jun 2, 2016 $39.99N/A (N/A)20,000 .. 50,0000%00:00 (00:00)
63 1775: Rebellion Sep 29, 2016 $24.99N/A (N/A)0 .. 20,0000%00:00 (00:00)
64 Highland Warriors Jan 20, 2003 $7.99N/A (N/A/58%)0 .. 20,0000%00:00 (00:00)
65 Megamagic: Wizards of the Neon Age Apr 20, 2016 $9.99N/A (N/A/67%)20,000 .. 50,0000%00:00 (00:00)
66 Planar Conquest May 30, 2016 $19.99N/A (N/A/53%)20,000 .. 50,0000%00:00 (00:00)
67 ABO MANDO Dec 31, 2015 $0.99N/A (N/A)50,000 .. 100,0000%00:00 (00:00)
68 Death by Game Show Jan 22, 2016 $1.99N/A (N/A)0 .. 20,0000%00:00 (00:00)
69 Shmups Skill Test シューティング技能検定 Jun 9, 2016 $4.99N/A (N/A)0 .. 20,0000%00:00 (00:00)
70 Acorn Assault: Rodent Revolution Mar 2, 2016 $9.99N/A (N/A)0 .. 20,0000%00:00 (00:00)
71 Phoning Home Feb 7, 2017 $19.99N/A (N/A/61%)20,000 .. 50,0000%00:00 (00:00)
72 Villagers Mar 25, 2016 $19.99N/A (N/A)20,000 .. 50,0000%00:00 (00:00)
73 Castle Torgeath: Descent into Darkness Dec 15, 2016 $7.99N/A (N/A)0 .. 20,0000%00:00 (00:00)
74 Rocket Fist May 12, 2016 $4.99N/A (N/A)0 .. 20,0000%00:00 (00:00)
75 Rush for gold: Alaska Jan 14, 2016 $3.99N/A (N/A)20,000 .. 50,0000%00:00 (00:00)
76 Gun Bombers Sep 21, 2016 $7.99N/A (N/A)0 .. 20,0000%00:00 (00:00)
77 Tank Brawl Apr 20, 2016 $4.99N/A (N/A)0 .. 20,0000%00:00 (00:00)
78 Red Game Without A Great Name Dec 9, 2015 N/AN/A (N/A/55%)20,000 .. 50,0000%00:00 (00:00)
79 Brigade E5: New Jagged Union Oct 17, 2006 $0.79N/A (N/A/41%)20,000 .. 50,0000%00:00 (00:00)
80 Great Big War Game Aug 28, 2012 $6.99N/A (N/A)0 .. 20,0000%00:00 (00:00)
81 Zombies on a Plane Mar 25, 2016 $0.49N/A (N/A)20,000 .. 50,0000%00:00 (00:00)
82 Marc Eckō's Getting Up: Contents Under Pressure Feb 14, 2006 $14.99N/A (N/A/69%)50,000 .. 100,0000%00:00 (00:00)
83 Radiant Defense Jul 11, 2014 $4.99N/A (N/A)0 .. 20,0000%00:00 (00:00)
84 CDF Ghostship Jun 26, 2015 $9.99N/A (N/A)0 .. 20,0000%00:00 (00:00)
85 Armed and Dangerous Dec 2, 2003 $5.99N/A (N/A/78%)20,000 .. 50,0000%00:00 (00:00)
86 Global Outbreak: Doomsday Edition Aug 11, 2014 $8.99N/A (N/A)0 .. 20,0000%00:00 (00:00)
87 Sam & Max 104: Abe Lincoln Must Die! Feb 22, 2007 $19.99N/A (N/A)500,000 .. 1,000,0000%00:00 (00:00)
88 JUDGEMENT SILVERSWORD - Resurrection - Sep 18, 2015 $4.99N/A (N/A)0 .. 20,0000%00:00 (00:00)
89 Starscape Mar 27, 2003 $7.99N/A (N/A)0 .. 20,0000%00:00 (00:00)
90 Avoid - Sensory Overload Apr 8, 2014 $4.99N/A (N/A)20,000 .. 50,0000%00:00 (00:00)
91 Bionic Commando Jul 28, 2009 $9.99N/A (N/A/69%)200,000 .. 500,0000%00:00 (00:00)
92 Zoo Empire Aug 1, 2004 $6.99N/A (N/A/59%)20,000 .. 50,0000%00:00 (00:00)
93 Crusaders: Thy Kingdom Come Oct 8, 2009 $9.99N/A (N/A)20,000 .. 50,0000%00:00 (00:00)
94 El Matador Sep 25, 2006 $0.59N/A (N/A/54%)20,000 .. 50,0000%00:00 (00:00)
95 Yar's Revenge Apr 28, 2011 $9.99N/A (N/A/56%)0 .. 20,0000%00:00 (00:00)
96 LUXIS Oct 26, 2016 $4.99N/A (N/A)20,000 .. 50,0000%00:00 (00:00)
97 Kabitis Jun 2, 2016 $2.99N/A (N/A)50,000 .. 100,0000%00:00 (00:00)
98 Board Defenders Sep 6, 2016 $4.99N/A (N/A)0 .. 20,0000%00:00 (00:00)
99 ORCS May 20, 2016 $1.99N/A (N/A)20,000 .. 50,0000%00:00 (00:00)
100 Eclipse: New Dawn for the Galaxy Sep 16, 2016 N/AN/A (N/A)0 .. 20,0000%00:00 (00:00)
101 Eador. Imperium Jan 27, 2017 $19.99N/A (N/A)0 .. 20,0000%00:00 (00:00)
102 Madness Cubed May 12, 2016 $1.99N/A (N/A)100,000 .. 200,0000%00:00 (00:00)
103 Rabbit Island Jul 13, 2016 $1.99N/A (N/A)0 .. 20,0000%00:00 (00:00)
104 Link Apr 22, 2016 $4.99N/A (N/A)0 .. 20,0000%00:00 (00:00)
105 Bot Vice Jul 11, 2016 $9.99N/A (N/A)0 .. 20,0000%00:00 (00:00)
106 Grizzly Valley Apr 23, 2016 $4.99N/A (N/A)100,000 .. 200,0000%00:00 (00:00)
107 FIVE: Champions of Canaan Sep 27, 2016 $3.99N/A (N/A)20,000 .. 50,0000%00:00 (00:00)
108 Plancon: Space Conflict Aug 8, 2016 $6.99N/A (N/A)20,000 .. 50,0000%00:00 (00:00)
109 Lew Pulsipher's Doomstar Sep 16, 2016 $9.99N/A (N/A)0 .. 20,0000%00:00 (00:00)
110 Stars in Shadow Jan 19, 2017 $4.99N/A (N/A/75%)20,000 .. 50,0000%00:00 (00:00)
111 Graveyard Shift Oct 20, 2016 $1.99N/A (N/A)0 .. 20,0000%00:00 (00:00)
112 VERSUS SQUAD Oct 26, 2016 $7.99N/A (N/A)0 .. 20,0000%00:00 (00:00)

Tags over time:

Access restricted.

This feature is only available to users with special access rights. Sorry.

If you want to proceed, you need to register or log in first and then back Steam Spy on Patreon. Look for Indie or Pro pledge.

Don't forget to use the same email as on Steam Spy!

Owners of this game also own:

Access restricted.

This feature is only available to users with special access rights. Sorry.

If you want to proceed, you need to register or log in first and then back Steam Spy on Patreon. Look for Indie or Pro pledge.

Don't forget to use the same email as on Steam Spy!

Playtime distribution:

Access restricted.

This feature is only available to users with special access rights. Sorry.

If you want to proceed, you need to register or log in first and then back Steam Spy on Patreon. Look for Indie or Pro pledge.

Don't forget to use the same email as on Steam Spy!

Playtime (2 weeks):

Access restricted.

This feature is only available to users with special access rights. Sorry.

If you want to proceed, you need to register or log in first and then back Steam Spy on Patreon. Look for Indie or Pro pledge.

Don't forget to use the same email as on Steam Spy!

User reviews:

Login required.

Please register or log in to see this information.